sensor_id;sensor_type;location;lat;lon;timestamp;temperature;humidity
80234;DHT22;69712;42.142;24.766;2023-05-10T00:02:09;11.80;65.40
80234;DHT22;69712;42.142;24.766;2023-05-10T00:04:35;11.80;65.40
80234;DHT22;69712;42.142;24.766;2023-05-10T00:07:00;11.70;65.80
80234;DHT22;69712;42.142;24.766;2023-05-10T00:09:27;11.60;66.40
80234;DHT22;69712;42.142;24.766;2023-05-10T00:11:52;11.50;67.20
80234;DHT22;69712;42.142;24.766;2023-05-10T00:14:18;11.50;67.80
80234;DHT22;69712;42.142;24.766;2023-05-10T00:16:44;11.30;68.60
80234;DHT22;69712;42.142;24.766;2023-05-10T00:19:10;11.60;68.00
80234;DHT22;69712;42.142;24.766;2023-05-10T00:21:36;11.50;68.50
80234;DHT22;69712;42.142;24.766;2023-05-10T00:24:02;11.50;69.00
80234;DHT22;69712;42.142;24.766;2023-05-10T00:26:27;11.40;69.20
80234;DHT22;69712;42.142;24.766;2023-05-10T00:28:53;11.50;69.10
80234;DHT22;69712;42.142;24.766;2023-05-10T00:31:19;11.60;69.00
80234;DHT22;69712;42.142;24.766;2023-05-10T00:33:44;11.50;69.10
80234;DHT22;69712;42.142;24.766;2023-05-10T00:36:49;11.40;69.60
80234;DHT22;69712;42.142;24.766;2023-05-10T00:39:21;11.60;69.20
80234;DHT22;69712;42.142;24.766;2023-05-10T00:41:47;11.60;69.20
80234;DHT22;69712;42.142;24.766;2023-05-10T00:44:13;11.60;69.30
80234;DHT22;69712;42.142;24.766;2023-05-10T00:46:38;11.70;69.00
80234;DHT22;69712;42.142;24.766;2023-05-10T00:49:04;11.90;68.80
80234;DHT22;69712;42.142;24.766;2023-05-10T00:51:30;11.80;69.20
80234;DHT22;69712;42.142;24.766;2023-05-10T00:53:57;11.90;69.10
80234;DHT22;69712;42.142;24.766;2023-05-10T00:56:24;11.60;69.30
80234;DHT22;69712;42.142;24.766;2023-05-10T00:58:50;11.50;69.90
80234;DHT22;69712;42.142;24.766;2023-05-10T01:01:16;11.60;70.00
80234;DHT22;69712;42.142;24.766;2023-05-10T01:03:42;11.60;69.60
80234;DHT22;69712;42.142;24.766;2023-05-10T01:06:09;11.70;69.00
80234;DHT22;69712;42.142;24.766;2023-05-10T01:08:36;11.70;69.20
80234;DHT22;69712;42.142;24.766;2023-05-10T01:11:01;11.80;69.10
80234;DHT22;69712;42.142;24.766;2023-05-10T01:13:37;11.70;68.80
80234;DHT22;69712;42.142;24.766;2023-05-10T01:16:05;11.60;69.00
80234;DHT22;69712;42.142;24.766;2023-05-10T01:18:35;11.40;69.60
80234;DHT22;69712;42.142;24.766;2023-05-10T01:21:31;11.40;69.70
80234;DHT22;69712;42.142;24.766;2023-05-10T01:26:42;11.50;70.00
80234;DHT22;69712;42.142;24.766;2023-05-10T01:34:35;11.70;68.90
80234;DHT22;69712;42.142;24.766;2023-05-10T01:37:22;11.70;69.20
80234;DHT22;69712;42.142;24.766;2023-05-10T01:40:05;11.70;68.90
80234;DHT22;69712;42.142;24.766;2023-05-10T01:43:03;11.70;69.00
80234;DHT22;69712;42.142;24.766;2023-05-10T01:45:36;11.50;69.90
80234;DHT22;69712;42.142;24.766;2023-05-10T01:48:08;11.60;70.00
80234;DHT22;69712;42.142;24.766;2023-05-10T01:50:37;11.60;69.80
80234;DHT22;69712;42.142;24.766;2023-05-10T01:53:06;11.50;70.10
80234;DHT22;69712;42.142;24.766;2023-05-10T01:55:41;11.40;70.40
80234;DHT22;69712;42.142;24.766;2023-05-10T01:58:14;11.30;70.50
80234;DHT22;69712;42.142;24.766;2023-05-10T02:00:43;11.20;71.00
80234;DHT22;69712;42.142;24.766;2023-05-10T02:03:10;10.90;71.60
80234;DHT22;69712;42.142;24.766;2023-05-10T02:05:38;10.90;72.00
80234;DHT22;69712;42.142;24.766;2023-05-10T02:08:06;11.00;71.70
80234;DHT22;69712;42.142;24.766;2023-05-10T02:10:34;11.10;71.60
80234;DHT22;69712;42.142;24.766;2023-05-10T02:13:02;10.90;71.00
80234;DHT22;69712;42.142;24.766;2023-05-10T02:15:28;11.10;71.20
80234;DHT22;69712;42.142;24.766;2023-05-10T02:17:56;11.20;71.40
80234;DHT22;69712;42.142;24.766;2023-05-10T02:20:24;11.20;70.70
80234;DHT22;69712;42.142;24.766;2023-05-10T02:23:00;11.30;70.40
80234;DHT22;69712;42.142;24.766;2023-05-10T02:25:33;11.30;70.30
80234;DHT22;69712;42.142;24.766;2023-05-10T02:28:06;11.30;70.30
80234;DHT22;69712;42.142;24.766;2023-05-10T02:30:33;11.30;70.10
80234;DHT22;69712;42.142;24.766;2023-05-10T02:33:01;11.40;70.00
80234;DHT22;69712;42.142;24.766;2023-05-10T02:35:28;11.60;69.60
80234;DHT22;69712;42.142;24.766;2023-05-10T02:37:54;11.50;69.50
80234;DHT22;69712;42.142;24.766;2023-05-10T02:40:22;11.50;69.80
80234;DHT22;69712;42.142;24.766;2023-05-10T02:42:51;11.40;69.80
80234;DHT22;69712;42.142;24.766;2023-05-10T02:45:20;11.30;70.00
80234;DHT22;69712;42.142;24.766;2023-05-10T02:47:47;11.20;70.10
80234;DHT22;69712;42.142;24.766;2023-05-10T02:50:13;11.40;70.00
80234;DHT22;69712;42.142;24.766;2023-05-10T02:52:47;11.50;69.50
80234;DHT22;69712;42.142;24.766;2023-05-10T02:55:16;11.50;69.50
80234;DHT22;69712;42.142;24.766;2023-05-10T02:57:56;11.50;69.30
80234;DHT22;69712;42.142;24.766;2023-05-10T03:00:23;11.00;70.60
80234;DHT22;69712;42.142;24.766;2023-05-10T03:02:49;11.20;70.80
80234;DHT22;69712;42.142;24.766;2023-05-10T03:05:15;11.30;70.40
80234;DHT22;69712;42.142;24.766;2023-05-10T03:07:41;11.30;70.30
80234;DHT22;69712;42.142;24.766;2023-05-10T03:10:07;11.10;70.00
80234;DHT22;69712;42.142;24.766;2023-05-10T03:18:15;11.40;70.00
80234;DHT22;69712;42.142;24.766;2023-05-10T03:20:49;11.40;69.60
80234;DHT22;69712;42.142;24.766;2023-05-10T03:23:50;11.40;69.90
80234;DHT22;69712;42.142;24.766;2023-05-10T03:26:25;11.10;70.50
80234;DHT22;69712;42.142;24.766;2023-05-10T03:28:52;11.20;70.50
80234;DHT22;69712;42.142;24.766;2023-05-10T03:31:18;11.40;69.90
80234;DHT22;69712;42.142;24.766;2023-05-10T03:33:51;11.60;69.50
80234;DHT22;69712;42.142;24.766;2023-05-10T03:36:18;11.50;69.30
80234;DHT22;69712;42.142;24.766;2023-05-10T03:38:44;11.60;68.80
80234;DHT22;69712;42.142;24.766;2023-05-10T03:41:10;11.70;68.70
80234;DHT22;69712;42.142;24.766;2023-05-10T03:43:35;11.70;69.40
80234;DHT22;69712;42.142;24.766;2023-05-10T03:46:05;11.80;69.70
80234;DHT22;69712;42.142;24.766;2023-05-10T03:48:32;11.70;71.20
80234;DHT22;69712;42.142;24.766;2023-05-10T03:50:58;11.90;69.50
80234;DHT22;69712;42.142;24.766;2023-05-10T03:53:24;11.90;68.70
80234;DHT22;69712;42.142;24.766;2023-05-10T03:55:50;11.70;68.50
80234;DHT22;69712;42.142;24.766;2023-05-10T03:58:15;11.80;68.50
80234;DHT22;69712;42.142;24.766;2023-05-10T04:00:41;11.80;68.40
80234;DHT22;69712;42.142;24.766;2023-05-10T04:03:10;11.60;68.50
80234;DHT22;69712;42.142;24.766;2023-05-10T04:05:36;11.90;68.20
80234;DHT22;69712;42.142;24.766;2023-05-10T04:08:03;11.50;68.90
80234;DHT22;69712;42.142;24.766;2023-05-10T04:10:29;11.50;69.60
80234;DHT22;69712;42.142;24.766;2023-05-10T04:12:54;11.60;68.80
80234;DHT22;69712;42.142;24.766;2023-05-10T04:15:20;11.70;68.70
80234;DHT22;69712;42.142;24.766;2023-05-10T04:17:46;11.60;69.00
80234;DHT22;69712;42.142;24.766;2023-05-10T04:20:12;11.30;69.40
80234;DHT22;69712;42.142;24.766;2023-05-10T04:22:38;11.30;70.40
80234;DHT22;69712;42.142;24.766;2023-05-10T04:25:05;11.40;72.90
80234;DHT22;69712;42.142;24.766;2023-05-10T04:27:31;11.70;69.10
80234;DHT22;69712;42.142;24.766;2023-05-10T04:29:57;11.80;68.60
80234;DHT22;69712;42.142;24.766;2023-05-10T04:32:23;11.70;68.30
80234;DHT22;69712;42.142;24.766;2023-05-10T04:34:49;11.70;69.00
80234;DHT22;69712;42.142;24.766;2023-05-10T04:37:16;11.70;68.40
80234;DHT22;69712;42.142;24.766;2023-05-10T04:39:41;11.80;68.20
80234;DHT22;69712;42.142;24.766;2023-05-10T04:42:07;12.00;68.00
80234;DHT22;69712;42.142;24.766;2023-05-10T04:44:33;12.10;67.50
80234;DHT22;69712;42.142;24.766;2023-05-10T04:46:59;12.30;66.60
80234;DHT22;69712;42.142;24.766;2023-05-10T04:49:25;12.30;65.80
80234;DHT22;69712;42.142;24.766;2023-05-10T04:51:51;12.10;67.00
80234;DHT22;69712;42.142;24.766;2023-05-10T04:54:16;12.20;66.20
80234;DHT22;69712;42.142;24.766;2023-05-10T04:56:42;12.20;66.60
80234;DHT22;69712;42.142;24.766;2023-05-10T04:59:08;12.20;65.50
80234;DHT22;69712;42.142;24.766;2023-05-10T05:01:33;12.30;64.80
80234;DHT22;69712;42.142;24.766;2023-05-10T05:03:59;12.20;65.40
80234;DHT22;69712;42.142;24.766;2023-05-10T05:06:25;12.20;64.80
80234;DHT22;69712;42.142;24.766;2023-05-10T05:08:52;12.00;65.70
80234;DHT22;69712;42.142;24.766;2023-05-10T05:11:18;11.70;66.80
80234;DHT22;69712;42.142;24.766;2023-05-10T05:13:44;11.70;67.50
80234;DHT22;69712;42.142;24.766;2023-05-10T05:16:09;11.90;66.50
80234;DHT22;69712;42.142;24.766;2023-05-10T05:18:36;12.00;65.20
80234;DHT22;69712;42.142;24.766;2023-05-10T05:21:02;12.10;65.60
80234;DHT22;69712;42.142;24.766;2023-05-10T05:23:28;12.00;66.10
80234;DHT22;69712;42.142;24.766;2023-05-10T05:25:54;12.00;66.50
80234;DHT22;69712;42.142;24.766;2023-05-10T05:28:22;12.00;65.50
80234;DHT22;69712;42.142;24.766;2023-05-10T05:30:48;11.90;66.60
80234;DHT22;69712;42.142;24.766;2023-05-10T05:33:14;11.70;66.70
80234;DHT22;69712;42.142;24.766;2023-05-10T05:35:41;11.60;67.60
80234;DHT22;69712;42.142;24.766;2023-05-10T05:38:08;11.70;67.50
80234;DHT22;69712;42.142;24.766;2023-05-10T05:40:34;11.70;67.70
80234;DHT22;69712;42.142;24.766;2023-05-10T05:42:59;11.60;67.60
80234;DHT22;69712;42.142;24.766;2023-05-10T05:45:25;11.40;68.30
80234;DHT22;69712;42.142;24.766;2023-05-10T05:47:51;11.30;69.10
80234;DHT22;69712;42.142;24.766;2023-05-10T05:50:17;11.30;68.70
80234;DHT22;69712;42.142;24.766;2023-05-10T05:52:42;11.50;68.90
80234;DHT22;69712;42.142;24.766;2023-05-10T05:55:08;11.70;67.90
80234;DHT22;69712;42.142;24.766;2023-05-10T05:57:34;12.10;66.90
80234;DHT22;69712;42.142;24.766;2023-05-10T05:59:59;11.90;66.80
80234;DHT22;69712;42.142;24.766;2023-05-10T06:02:25;12.10;66.90
80234;DHT22;69712;42.142;24.766;2023-05-10T06:04:51;11.80;67.70
80234;DHT22;69712;42.142;24.766;2023-05-10T06:07:17;11.70;68.00
80234;DHT22;69712;42.142;24.766;2023-05-10T06:09:42;11.90;67.80
80234;DHT22;69712;42.142;24.766;2023-05-10T06:12:09;12.10;67.20
80234;DHT22;69712;42.142;24.766;2023-05-10T06:14:35;12.10;67.50
80234;DHT22;69712;42.142;24.766;2023-05-10T06:17:01;12.20;67.00
80234;DHT22;69712;42.142;24.766;2023-05-10T06:19:29;11.90;67.40
80234;DHT22;69712;42.142;24.766;2023-05-10T06:21:55;12.10;67.60
80234;DHT22;69712;42.142;24.766;2023-05-10T06:24:21;12.20;66.70
80234;DHT22;69712;42.142;24.766;2023-05-10T06:26:47;12.30;67.10
80234;DHT22;69712;42.142;24.766;2023-05-10T06:29:15;12.50;66.00
80234;DHT22;69712;42.142;24.766;2023-05-10T06:31:40;12.90;64.60
80234;DHT22;69712;42.142;24.766;2023-05-10T06:34:06;13.30;63.50
80234;DHT22;69712;42.142;24.766;2023-05-10T06:36:33;13.40;62.20
80234;DHT22;69712;42.142;24.766;2023-05-10T06:38:59;13.30;62.50
80234;DHT22;69712;42.142;24.766;2023-05-10T06:41:25;13.20;62.90
80234;DHT22;69712;42.142;24.766;2023-05-10T06:43:50;13.10;63.40
80234;DHT22;69712;42.142;24.766;2023-05-10T06:46:16;12.90;64.00
80234;DHT22;69712;42.142;24.766;2023-05-10T06:48:42;13.00;64.00
80234;DHT22;69712;42.142;24.766;2023-05-10T06:51:07;13.20;63.40
80234;DHT22;69712;42.142;24.766;2023-05-10T06:53:33;13.30;62.50
80234;DHT22;69712;42.142;24.766;2023-05-10T06:55:59;13.70;61.70
80234;DHT22;69712;42.142;24.766;2023-05-10T06:58:24;13.70;61.10
80234;DHT22;69712;42.142;24.766;2023-05-10T07:00:50;13.70;60.60
80234;DHT22;69712;42.142;24.766;2023-05-10T07:03:16;13.30;61.30
80234;DHT22;69712;42.142;24.766;2023-05-10T07:05:42;13.10;62.90
80234;DHT22;69712;42.142;24.766;2023-05-10T07:08:07;13.20;62.70
80234;DHT22;69712;42.142;24.766;2023-05-10T07:10:33;13.40;62.00
80234;DHT22;69712;42.142;24.766;2023-05-10T07:12:59;13.50;61.90
80234;DHT22;69712;42.142;24.766;2023-05-10T07:15:26;13.80;61.20
80234;DHT22;69712;42.142;24.766;2023-05-10T07:17:52;14.00;60.30
80234;DHT22;69712;42.142;24.766;2023-05-10T07:20:18;13.90;59.60
80234;DHT22;69712;42.142;24.766;2023-05-10T07:22:43;14.20;59.40
80234;DHT22;69712;42.142;24.766;2023-05-10T07:25:09;14.00;59.40
80234;DHT22;69712;42.142;24.766;2023-05-10T07:27:36;13.70;60.50
80234;DHT22;69712;42.142;24.766;2023-05-10T07:30:01;13.80;60.30
80234;DHT22;69712;42.142;24.766;2023-05-10T07:32:28;13.80;60.50
80234;DHT22;69712;42.142;24.766;2023-05-10T07:34:53;13.70;61.10
80234;DHT22;69712;42.142;24.766;2023-05-10T07:37:19;13.50;60.40
80234;DHT22;69712;42.142;24.766;2023-05-10T07:39:45;13.90;60.20
80234;DHT22;69712;42.142;24.766;2023-05-10T07:42:10;14.20;58.70
80234;DHT22;69712;42.142;24.766;2023-05-10T07:44:36;14.20;58.60
80234;DHT22;69712;42.142;24.766;2023-05-10T07:47:02;14.60;58.40
80234;DHT22;69712;42.142;24.766;2023-05-10T07:49:28;14.70;58.20
80234;DHT22;69712;42.142;24.766;2023-05-10T07:51:54;15.20;56.60
80234;DHT22;69712;42.142;24.766;2023-05-10T07:54:19;15.50;55.80
80234;DHT22;69712;42.142;24.766;2023-05-10T07:56:45;15.50;54.80
80234;DHT22;69712;42.142;24.766;2023-05-10T07:59:16;15.60;54.00
80234;DHT22;69712;42.142;24.766;2023-05-10T08:01:42;15.40;53.90
80234;DHT22;69712;42.142;24.766;2023-05-10T08:04:08;15.60;54.60
80234;DHT22;69712;42.142;24.766;2023-05-10T08:06:34;16.40;52.60
80234;DHT22;69712;42.142;24.766;2023-05-10T08:09:00;16.30;52.30
80234;DHT22;69712;42.142;24.766;2023-05-10T08:11:26;16.30;52.10
80234;DHT22;69712;42.142;24.766;2023-05-10T08:13:53;16.10;51.20
80234;DHT22;69712;42.142;24.766;2023-05-10T08:16:20;16.20;50.30
80234;DHT22;69712;42.142;24.766;2023-05-10T08:18:46;15.50;52.50
80234;DHT22;69712;42.142;24.766;2023-05-10T08:21:13;15.40;53.80
80234;DHT22;69712;42.142;24.766;2023-05-10T08:23:39;14.40;55.20
80234;DHT22;69712;42.142;24.766;2023-05-10T08:26:05;14.30;54.90
80234;DHT22;69712;42.142;24.766;2023-05-10T08:28:31;14.50;55.40
80234;DHT22;69712;42.142;24.766;2023-05-10T08:30:56;14.70;55.00
80234;DHT22;69712;42.142;24.766;2023-05-10T08:33:22;14.70;55.70
80234;DHT22;69712;42.142;24.766;2023-05-10T08:35:48;14.70;54.70
80234;DHT22;69712;42.142;24.766;2023-05-10T08:38:14;14.40;55.70
80234;DHT22;69712;42.142;24.766;2023-05-10T08:40:41;14.50;56.80
80234;DHT22;69712;42.142;24.766;2023-05-10T08:43:09;15.00;55.70
80234;DHT22;69712;42.142;24.766;2023-05-10T08:45:39;15.30;53.70
80234;DHT22;69712;42.142;24.766;2023-05-10T08:48:06;15.30;52.70
80234;DHT22;69712;42.142;24.766;2023-05-10T08:50:33;15.40;53.40
80234;DHT22;69712;42.142;24.766;2023-05-10T08:53:10;15.50;52.60
80234;DHT22;69712;42.142;24.766;2023-05-10T08:55:37;15.60;52.50
80234;DHT22;69712;42.142;24.766;2023-05-10T08:58:05;15.80;52.40
80234;DHT22;69712;42.142;24.766;2023-05-10T09:00:31;15.10;54.90
80234;DHT22;69712;42.142;24.766;2023-05-10T09:03:00;15.00;54.20
80234;DHT22;69712;42.142;24.766;2023-05-10T09:05:27;15.30;54.00
80234;DHT22;69712;42.142;24.766;2023-05-10T09:07:52;15.60;52.90
80234;DHT22;69712;42.142;24.766;2023-05-10T09:10:19;15.80;51.20
80234;DHT22;69712;42.142;24.766;2023-05-10T09:12:45;15.90;50.20
80234;DHT22;69712;42.142;24.766;2023-05-10T09:15:13;15.70;51.10
80234;DHT22;69712;42.142;24.766;2023-05-10T09:17:40;15.60;52.10
80234;DHT22;69712;42.142;24.766;2023-05-10T09:20:07;15.40;52.80
80234;DHT22;69712;42.142;24.766;2023-05-10T09:22:34;15.40;52.40
80234;DHT22;69712;42.142;24.766;2023-05-10T09:25:11;15.30;51.90
80234;DHT22;69712;42.142;24.766;2023-05-10T09:27:38;15.30;52.00
80234;DHT22;69712;42.142;24.766;2023-05-10T09:30:04;15.60;52.40
80234;DHT22;69712;42.142;24.766;2023-05-10T09:32:44;15.40;52.40
80234;DHT22;69712;42.142;24.766;2023-05-10T09:35:14;15.70;52.60
80234;DHT22;69712;42.142;24.766;2023-05-10T09:37:43;15.80;51.40
80234;DHT22;69712;42.142;24.766;2023-05-10T09:40:17;15.80;51.50
80234;DHT22;69712;42.142;24.766;2023-05-10T09:42:52;15.60;52.40
80234;DHT22;69712;42.142;24.766;2023-05-10T09:45:17;15.60;50.60
80234;DHT22;69712;42.142;24.766;2023-05-10T09:47:43;15.80;50.90
80234;DHT22;69712;42.142;24.766;2023-05-10T09:50:10;16.00;49.20
80234;DHT22;69712;42.142;24.766;2023-05-10T09:52:55;16.20;49.30
80234;DHT22;69712;42.142;24.766;2023-05-10T09:58:01;16.20;50.00
80234;DHT22;69712;42.142;24.766;2023-05-10T10:00:28;16.00;50.10
80234;DHT22;69712;42.142;24.766;2023-05-10T10:02:58;15.70;51.40
80234;DHT22;69712;42.142;24.766;2023-05-10T10:05:31;16.30;50.10
80234;DHT22;69712;42.142;24.766;2023-05-10T10:07:58;16.20;50.20
80234;DHT22;69712;42.142;24.766;2023-05-10T10:10:25;16.50;49.20
80234;DHT22;69712;42.142;24.766;2023-05-10T10:12:52;16.90;49.40
80234;DHT22;69712;42.142;24.766;2023-05-10T10:15:18;17.40;48.90
80234;DHT22;69712;42.142;24.766;2023-05-10T10:17:45;17.30;47.60
80234;DHT22;69712;42.142;24.766;2023-05-10T10:20:12;17.60;47.60
80234;DHT22;69712;42.142;24.766;2023-05-10T10:22:38;18.00;47.30
80234;DHT22;69712;42.142;24.766;2023-05-10T10:25:04;18.00;46.70
80234;DHT22;69712;42.142;24.766;2023-05-10T10:33:17;17.30;47.40
80234;DHT22;69712;42.142;24.766;2023-05-10T10:35:46;17.50;47.50
80234;DHT22;69712;42.142;24.766;2023-05-10T10:38:13;17.90;45.70
80234;DHT22;69712;42.142;24.766;2023-05-10T10:40:39;17.90;45.80
80234;DHT22;69712;42.142;24.766;2023-05-10T10:43:24;18.50;45.00
80234;DHT22;69712;42.142;24.766;2023-05-10T10:46:11;18.90;43.50
80234;DHT22;69712;42.142;24.766;2023-05-10T10:49:08;18.90;43.20
80234;DHT22;69712;42.142;24.766;2023-05-10T10:51:39;17.80;44.50
80234;DHT22;69712;42.142;24.766;2023-05-10T10:54:10;17.50;44.40
80234;DHT22;69712;42.142;24.766;2023-05-10T10:56:35;17.80;43.10
80234;DHT22;69712;42.142;24.766;2023-05-10T10:59:01;18.10;43.20
80234;DHT22;69712;42.142;24.766;2023-05-10T11:01:33;18.10;43.90
80234;DHT22;69712;42.142;24.766;2023-05-10T11:08:57;18.30;44.50
80234;DHT22;69712;42.142;24.766;2023-05-10T11:11:22;18.80;43.30
80234;DHT22;69712;42.142;24.766;2023-05-10T11:13:48;18.80;41.80
80234;DHT22;69712;42.142;24.766;2023-05-10T11:16:22;19.30;41.70
80234;DHT22;69712;42.142;24.766;2023-05-10T11:19:07;19.10;40.80
80234;DHT22;69712;42.142;24.766;2023-05-10T11:21:47;19.40;41.60
80234;DHT22;69712;42.142;24.766;2023-05-10T11:24:15;20.00;39.90
80234;DHT22;69712;42.142;24.766;2023-05-10T11:26:42;19.40;41.00
80234;DHT22;69712;42.142;24.766;2023-05-10T11:29:08;19.10;41.10
80234;DHT22;69712;42.142;24.766;2023-05-10T11:31:34;18.90;42.20
80234;DHT22;69712;42.142;24.766;2023-05-10T11:34:01;19.00;40.80
80234;DHT22;69712;42.142;24.766;2023-05-10T11:36:33;18.80;40.70
80234;DHT22;69712;42.142;24.766;2023-05-10T11:38:59;18.20;40.90
80234;DHT22;69712;42.142;24.766;2023-05-10T11:41:27;18.50;41.60
80234;DHT22;69712;42.142;24.766;2023-05-10T11:43:54;18.80;40.40
80234;DHT22;69712;42.142;24.766;2023-05-10T11:46:25;18.40;40.80
80234;DHT22;69712;42.142;24.766;2023-05-10T11:49:00;19.00;40.20
80234;DHT22;69712;42.142;24.766;2023-05-10T11:51:35;18.70;40.90
80234;DHT22;69712;42.142;24.766;2023-05-10T11:54:08;18.20;41.10
80234;DHT22;69712;42.142;24.766;2023-05-10T11:56:34;18.20;41.20
80234;DHT22;69712;42.142;24.766;2023-05-10T11:59:00;18.90;40.60
80234;DHT22;69712;42.142;24.766;2023-05-10T12:01:28;19.90;39.60
80234;DHT22;69712;42.142;24.766;2023-05-10T12:03:55;19.50;39.70
80234;DHT22;69712;42.142;24.766;2023-05-10T12:06:27;19.60;39.40
80234;DHT22;69712;42.142;24.766;2023-05-10T12:08:54;19.20;40.30
80234;DHT22;69712;42.142;24.766;2023-05-10T12:11:19;19.30;39.60
80234;DHT22;69712;42.142;24.766;2023-05-10T12:13:47;18.90;40.00
80234;DHT22;69712;42.142;24.766;2023-05-10T12:16:18;18.70;40.20
80234;DHT22;69712;42.142;24.766;2023-05-10T12:18:45;18.60;41.20
80234;DHT22;69712;42.142;24.766;2023-05-10T12:21:11;18.70;41.60
80234;DHT22;69712;42.142;24.766;2023-05-10T12:23:38;18.90;41.50
80234;DHT22;69712;42.142;24.766;2023-05-10T12:26:04;18.80;40.70
80234;DHT22;69712;42.142;24.766;2023-05-10T12:28:31;18.40;41.10
80234;DHT22;69712;42.142;24.766;2023-05-10T12:30:58;18.50;41.90
80234;DHT22;69712;42.142;24.766;2023-05-10T12:33:25;18.50;42.40
80234;DHT22;69712;42.142;24.766;2023-05-10T12:35:52;18.20;42.20
80234;DHT22;69712;42.142;24.766;2023-05-10T12:40:50;17.50;42.40
80234;DHT22;69712;42.142;24.766;2023-05-10T12:43:16;17.70;43.10
80234;DHT22;69712;42.142;24.766;2023-05-10T12:45:42;17.40;42.70
80234;DHT22;69712;42.142;24.766;2023-05-10T12:48:07;17.50;43.00
80234;DHT22;69712;42.142;24.766;2023-05-10T12:50:33;17.70;42.50
80234;DHT22;69712;42.142;24.766;2023-05-10T12:52:59;17.50;43.00
80234;DHT22;69712;42.142;24.766;2023-05-10T12:55:25;17.50;42.80
80234;DHT22;69712;42.142;24.766;2023-05-10T12:57:50;17.50;42.80
80234;DHT22;69712;42.142;24.766;2023-05-10T13:00:16;17.30;43.10
80234;DHT22;69712;42.142;24.766;2023-05-10T13:02:42;17.10;44.80
80234;DHT22;69712;42.142;24.766;2023-05-10T13:05:08;17.20;42.10
80234;DHT22;69712;42.142;24.766;2023-05-10T13:07:33;17.50;42.10
80234;DHT22;69712;42.142;24.766;2023-05-10T13:09:59;17.80;41.60
80234;DHT22;69712;42.142;24.766;2023-05-10T13:12:25;18.00;41.90
80234;DHT22;69712;42.142;24.766;2023-05-10T13:14:51;18.10;40.60
80234;DHT22;69712;42.142;24.766;2023-05-10T13:17:16;18.70;40.10
80234;DHT22;69712;42.142;24.766;2023-05-10T13:19:42;18.80;40.00
80234;DHT22;69712;42.142;24.766;2023-05-10T13:22:08;18.70;39.10
80234;DHT22;69712;42.142;24.766;2023-05-10T13:24:33;18.00;40.00
80234;DHT22;69712;42.142;24.766;2023-05-10T13:26:59;17.50;40.80
80234;DHT22;69712;42.142;24.766;2023-05-10T13:29:25;17.60;40.90
80234;DHT22;69712;42.142;24.766;2023-05-10T13:31:51;17.60;41.00
80234;DHT22;69712;42.142;24.766;2023-05-10T13:34:17;17.50;40.80
80234;DHT22;69712;42.142;24.766;2023-05-10T13:36:46;17.70;41.70
80234;DHT22;69712;42.142;24.766;2023-05-10T13:39:11;17.70;41.00
80234;DHT22;69712;42.142;24.766;2023-05-10T13:41:37;17.50;41.50
80234;DHT22;69712;42.142;24.766;2023-05-10T13:44:03;17.10;42.30
80234;DHT22;69712;42.142;24.766;2023-05-10T13:46:29;17.10;41.90
80234;DHT22;69712;42.142;24.766;2023-05-10T13:48:56;16.80;43.10
80234;DHT22;69712;42.142;24.766;2023-05-10T13:51:22;16.70;43.90
80234;DHT22;69712;42.142;24.766;2023-05-10T13:53:48;16.80;43.60
80234;DHT22;69712;42.142;24.766;2023-05-10T13:56:14;16.70;44.30
80234;DHT22;69712;42.142;24.766;2023-05-10T13:58:40;16.80;44.70
80234;DHT22;69712;42.142;24.766;2023-05-10T14:01:06;16.90;45.00
80234;DHT22;69712;42.142;24.766;2023-05-10T14:03:32;16.90;44.90
80234;DHT22;69712;42.142;24.766;2023-05-10T14:05:58;16.80;44.80
80234;DHT22;69712;42.142;24.766;2023-05-10T14:08:23;16.90;44.00
80234;DHT22;69712;42.142;24.766;2023-05-10T14:10:49;17.10;43.20
80234;DHT22;69712;42.142;24.766;2023-05-10T14:13:16;17.00;43.40
80234;DHT22;69712;42.142;24.766;2023-05-10T14:15:41;16.80;42.60
80234;DHT22;69712;42.142;24.766;2023-05-10T14:18:07;16.80;43.30
80234;DHT22;69712;42.142;24.766;2023-05-10T14:20:33;17.00;43.50
80234;DHT22;69712;42.142;24.766;2023-05-10T14:22:59;16.90;42.30
80234;DHT22;69712;42.142;24.766;2023-05-10T14:25:25;16.80;42.80
80234;DHT22;69712;42.142;24.766;2023-05-10T14:27:51;16.90;43.60
80234;DHT22;69712;42.142;24.766;2023-05-10T14:30:20;16.90;43.00
80234;DHT22;69712;42.142;24.766;2023-05-10T14:32:46;16.80;43.60
80234;DHT22;69712;42.142;24.766;2023-05-10T14:35:11;16.90;43.40
80234;DHT22;69712;42.142;24.766;2023-05-10T14:37:38;16.90;43.60
80234;DHT22;69712;42.142;24.766;2023-05-10T14:40:05;16.90;43.60
80234;DHT22;69712;42.142;24.766;2023-05-10T14:42:31;17.10;44.10
80234;DHT22;69712;42.142;24.766;2023-05-10T14:44:57;16.90;44.50
80234;DHT22;69712;42.142;24.766;2023-05-10T14:47:23;17.20;44.70
80234;DHT22;69712;42.142;24.766;2023-05-10T14:49:49;17.20;43.90
80234;DHT22;69712;42.142;24.766;2023-05-10T14:52:15;17.30;43.90
80234;DHT22;69712;42.142;24.766;2023-05-10T14:54:48;17.20;43.70
80234;DHT22;69712;42.142;24.766;2023-05-10T14:57:14;17.40;43.70
80234;DHT22;69712;42.142;24.766;2023-05-10T14:59:41;17.20;43.80
80234;DHT22;69712;42.142;24.766;2023-05-10T15:02:06;17.20;43.80
80234;DHT22;69712;42.142;24.766;2023-05-10T15:04:33;17.20;43.60
80234;DHT22;69712;42.142;24.766;2023-05-10T15:06:59;17.20;43.60
80234;DHT22;69712;42.142;24.766;2023-05-10T15:09:25;17.20;43.70
80234;DHT22;69712;42.142;24.766;2023-05-10T15:11:53;17.00;44.00
80234;DHT22;69712;42.142;24.766;2023-05-10T15:14:19;17.00;44.00
80234;DHT22;69712;42.142;24.766;2023-05-10T15:16:45;16.90;43.30
80234;DHT22;69712;42.142;24.766;2023-05-10T15:19:11;16.40;44.90
80234;DHT22;69712;42.142;24.766;2023-05-10T15:21:36;16.40;45.30
80234;DHT22;69712;42.142;24.766;2023-05-10T15:24:05;16.30;45.30
80234;DHT22;69712;42.142;24.766;2023-05-10T15:26:30;16.30;44.90
80234;DHT22;69712;42.142;24.766;2023-05-10T15:28:57;16.40;45.50
80234;DHT22;69712;42.142;24.766;2023-05-10T15:31:22;16.30;45.80
80234;DHT22;69712;42.142;24.766;2023-05-10T15:33:48;16.10;46.10
80234;DHT22;69712;42.142;24.766;2023-05-10T15:36:14;16.20;46.90
80234;DHT22;69712;42.142;24.766;2023-05-10T15:38:39;15.90;47.00
80234;DHT22;69712;42.142;24.766;2023-05-10T15:41:05;15.90;47.90
80234;DHT22;69712;42.142;24.766;2023-05-10T15:43:31;16.10;47.30
80234;DHT22;69712;42.142;24.766;2023-05-10T15:45:56;16.00;46.20
80234;DHT22;69712;42.142;24.766;2023-05-10T15:48:22;16.00;46.50